Time;durP1;ratioP1;P1;durP2;ratioP2;P2;SDS_P1;SDS_P2;PMS_P1;PMS_P2;Temp;Humidity;BMP_temperature;BMP_pressure;BME280_temperature;BME280_humidity;BME280_pressure;Samples;Min_cycle;Max_cycle;Signal;HPM_P1;HPM_P2
2024/01/05 00:01:23;;;;;;;0.10;0.10;;;8.60;99.60;;;;;;5019712;28;20039;-81
2024/01/05 00:03:49;;;;;;;0.00;0.00;;;8.60;99.60;;;;;;5022335;28;20484;-83
2024/01/05 00:06:15;;;;;;;0.00;0.00;;;8.60;99.60;;;;;;5020788;28;20682;-80
2024/01/05 00:08:40;;;;;;;0.10;0.10;;;8.60;99.60;;;;;;5020841;28;20164;-79
2024/01/05 00:11:06;;;;;;;0.10;0.10;;;8.60;99.70;;;;;;5019028;28;20033;-82
2024/01/05 00:13:32;;;;;;;0.10;0.10;;;8.70;99.70;;;;;;5021409;28;20042;-82
2024/01/05 00:15:57;;;;;;;0.10;0.10;;;8.70;99.80;;;;;;5019716;28;20048;-81
2024/01/05 00:18:23;;;;;;;0.10;0.10;;;8.70;99.80;;;;;;5023706;28;20026;-79
2024/01/05 00:20:49;;;;;;;0.05;0.05;;;8.70;99.90;;;;;;5018491;28;20037;-80
2024/01/05 00:23:14;;;;;;;0.10;0.10;;;8.70;99.90;;;;;;5021791;28;20029;-82
2024/01/05 00:25:40;;;;;;;0.00;0.00;;;8.70;99.90;;;;;;5016800;28;20535;-78
2024/01/05 00:28:06;;;;;;;0.10;0.10;;;8.70;99.90;;;;;;5011484;28;20060;-78
2024/01/05 00:30:34;;;;;;;0.30;0.30;;;8.80;99.90;;;;;;5016510;28;20033;-83
2024/01/05 00:33:00;;;;;;;0.20;0.20;;;8.70;99.90;;;;;;5019172;28;20076;-78
2024/01/05 00:35:26;;;;;;;0.10;0.10;;;8.60;99.90;;;;;;5016329;28;20531;-80
2024/01/05 00:37:51;;;;;;;0.10;0.10;;;8.60;99.90;;;;;;5023642;28;20052;-83
2024/01/05 00:40:17;;;;;;;0.50;0.50;;;8.50;99.90;;;;;;5020090;28;20485;-79
2024/01/05 00:42:43;;;;;;;0.10;0.10;;;8.50;99.90;;;;;;5018380;28;20112;-79
2024/01/05 00:45:09;;;;;;;0.10;0.10;;;8.50;99.90;;;;;;5018273;28;20041;-82
2024/01/05 00:47:35;;;;;;;0.00;0.00;;;8.50;99.90;;;;;;5021388;28;20084;-79
2024/01/05 00:50:01;;;;;;;0.10;0.10;;;8.50;99.90;;;;;;5017444;28;20846;-78
2024/01/05 00:52:27;;;;;;;0.10;0.10;;;8.40;99.90;;;;;;5022368;28;20033;-82
2024/01/05 00:54:52;;;;;;;0.10;0.10;;;8.40;99.90;;;;;;5020018;28;20448;-79
2024/01/05 00:57:18;;;;;;;0.45;0.45;;;8.30;99.90;;;;;;5018729;28;20021;-81
2024/01/05 00:59:44;;;;;;;0.08;0.08;;;8.30;99.90;;;;;;5018619;28;20029;-80
2024/01/05 01:02:09;;;;;;;0.10;0.10;;;8.20;99.90;;;;;;5016966;28;20029;-80
2024/01/05 01:04:35;;;;;;;0.10;0.10;;;8.20;99.90;;;;;;5019986;28;20100;-78
2024/01/05 01:07:00;;;;;;;0.10;0.10;;;8.30;99.90;;;;;;5021273;28;20033;-79
2024/01/05 01:09:26;;;;;;;1.30;1.30;;;8.30;99.90;;;;;;5020527;28;20029;-81
2024/01/05 01:11:52;;;;;;;0.10;0.10;;;8.30;99.90;;;;;;5019301;28;20034;-81
2024/01/05 01:14:18;;;;;;;0.00;0.00;;;8.50;99.90;;;;;;5015083;28;20072;-79
2024/01/05 01:16:43;;;;;;;0.10;0.10;;;8.60;99.90;;;;;;5016349;28;20037;-79
2024/01/05 01:19:09;;;;;;;0.00;0.00;;;8.60;99.90;;;;;;5019791;28;20039;-80
2024/01/05 01:21:35;;;;;;;0.32;0.32;;;8.70;99.90;;;;;;5017922;28;20033;-81
2024/01/05 01:24:01;;;;;;;0.40;0.40;;;8.70;99.90;;;;;;5019179;28;20751;-79
2024/01/05 01:26:26;;;;;;;0.90;0.90;;;8.80;99.90;;;;;;5013563;28;20033;-81
2024/01/05 01:28:52;;;;;;;0.10;0.10;;;8.80;99.90;;;;;;5021835;28;20120;-79
2024/01/05 01:31:18;;;;;;;0.30;0.30;;;8.80;99.90;;;;;;5021434;28;20441;-79
2024/01/05 01:33:43;;;;;;;0.10;0.10;;;8.70;99.90;;;;;;5024693;28;20036;-79
2024/01/05 01:36:09;;;;;;;0.10;0.10;;;8.70;99.90;;;;;;5020945;28;20048;-80
2024/01/05 01:38:35;;;;;;;0.10;0.10;;;8.70;99.90;;;;;;5026013;28;20033;-80
2024/01/05 01:41:01;;;;;;;0.10;0.10;;;8.70;99.90;;;;;;5020749;28;20049;-80
2024/01/05 01:43:27;;;;;;;0.10;0.10;;;8.70;99.90;;;;;;5023378;28;20732;-82
2024/01/05 01:45:57;;;;;;;0.10;0.10;;;8.70;99.90;;;;;;5020709;28;20087;-81
2024/01/05 01:48:24;;;;;;;0.10;0.10;;;8.70;99.90;;;;;;5020422;28;20425;-80
2024/01/05 01:50:51;;;;;;;0.10;0.10;;;8.80;99.90;;;;;;5020554;28;20813;-79
2024/01/05 01:53:19;;;;;;;0.20;0.20;;;8.80;99.90;;;;;;5021630;28;20109;-78
2024/01/05 01:55:47;;;;;;;0.10;0.10;;;8.60;99.90;;;;;;5020651;28;20036;-80
2024/01/05 01:58:16;;;;;;;0.10;0.10;;;8.50;99.90;;;;;;5023765;28;20140;-79
2024/01/05 02:00:43;;;;;;;2.45;1.23;;;8.60;99.90;;;;;;5020736;28;20018;-84
2024/01/05 02:03:10;;;;;;;0.10;0.10;;;8.50;99.90;;;;;;5023895;28;20064;-83
2024/01/05 02:05:36;;;;;;;0.10;0.10;;;8.60;99.90;;;;;;5024641;28;20564;-79
2024/01/05 02:08:02;;;;;;;0.00;0.00;;;8.50;99.90;;;;;;5023383;28;20034;-80
2024/01/05 02:10:28;;;;;;;0.10;0.10;;;8.30;99.90;;;;;;5020792;28;20029;-80
2024/01/05 02:12:56;;;;;;;0.10;0.10;;;8.40;99.90;;;;;;5014158;28;20490;-80
2024/01/05 02:15:22;;;;;;;0.57;0.52;;;8.40;99.90;;;;;;5021814;28;20040;-82
2024/01/05 02:17:48;;;;;;;0.10;0.10;;;8.40;99.90;;;;;;5024326;28;20024;-81
2024/01/05 02:20:13;;;;;;;0.10;0.10;;;8.40;99.90;;;;;;5023863;28;20036;-80
2024/01/05 02:22:44;;;;;;;0.10;0.10;;;8.50;99.90;;;;;;5017320;28;20516;-81
2024/01/05 02:25:10;;;;;;;0.10;0.10;;;8.50;99.90;;;;;;5018365;28;20033;-79
2024/01/05 02:27:36;;;;;;;0.10;0.10;;;8.50;99.90;;;;;;5022638;28;20074;-80
2024/01/05 02:30:02;;;;;;;0.10;0.10;;;8.50;99.90;;;;;;5021170;28;20025;-83
2024/01/05 02:32:30;;;;;;;0.10;0.10;;;8.50;99.90;;;;;;5022482;28;20807;-81
2024/01/05 02:34:56;;;;;;;0.10;0.10;;;8.40;99.90;;;;;;5022881;28;20040;-83
2024/01/05 02:37:22;;;;;;;0.10;0.10;;;8.30;99.90;;;;;;5018784;28;20029;-83
2024/01/05 02:39:47;;;;;;;0.28;0.28;;;8.30;99.90;;;;;;5025492;28;20029;-82
2024/01/05 02:42:13;;;;;;;0.10;0.10;;;8.30;99.90;;;;;;5021198;28;20556;-79
2024/01/05 02:44:38;;;;;;;2.33;1.80;;;8.20;99.90;;;;;;5022671;28;20025;-79
2024/01/05 02:47:04;;;;;;;0.10;0.10;;;8.20;99.90;;;;;;5016022;28;20484;-81
2024/01/05 02:49:30;;;;;;;0.15;0.15;;;8.10;99.90;;;;;;5016589;28;20651;-80
2024/01/05 02:51:55;;;;;;;0.00;0.00;;;8.20;99.90;;;;;;5026228;28;20017;-81
2024/01/05 02:54:21;;;;;;;0.10;0.10;;;8.10;99.90;;;;;;5023310;28;20064;-82
2024/01/05 02:56:47;;;;;;;0.10;0.10;;;8.10;99.90;;;;;;5022800;28;20061;-83
2024/01/05 02:59:12;;;;;;;0.10;0.10;;;8.20;99.90;;;;;;5022703;28;20033;-80
2024/01/05 03:01:38;;;;;;;0.25;0.25;;;8.30;99.90;;;;;;5023644;28;20030;-80
2024/01/05 03:04:04;;;;;;;0.10;0.10;;;8.30;99.90;;;;;;5023488;28;20026;-79
2024/01/05 03:06:29;;;;;;;0.10;0.10;;;8.30;99.90;;;;;;5024062;28;20064;-83
2024/01/05 03:08:55;;;;;;;0.10;0.10;;;8.30;99.90;;;;;;5020822;28;20588;-80
2024/01/05 03:11:20;;;;;;;0.43;0.28;;;8.10;99.90;;;;;;5023643;28;20057;-79
2024/01/05 03:13:46;;;;;;;0.10;0.10;;;8.10;99.90;;;;;;5022157;28;20472;-80
2024/01/05 03:16:12;;;;;;;0.10;0.10;;;8.20;99.90;;;;;;5046017;28;20788;-83
2024/01/05 03:18:37;;;;;;;0.17;0.17;;;8.10;99.90;;;;;;5026406;28;20033;-80
2024/01/05 03:21:03;;;;;;;0.10;0.10;;;8.20;99.90;;;;;;5023855;28;20440;-82
2024/01/05 03:23:29;;;;;;;0.10;0.10;;;8.30;99.90;;;;;;5023208;28;20412;-82
2024/01/05 03:25:56;;;;;;;0.10;0.10;;;8.20;99.90;;;;;;5021040;28;20029;-81
2024/01/05 03:28:22;;;;;;;0.32;0.32;;;8.10;99.90;;;;;;5022899;28;20040;-82
2024/01/05 03:30:48;;;;;;;0.10;0.10;;;8.20;99.90;;;;;;5023093;28;20049;-80
2024/01/05 03:33:13;;;;;;;0.20;0.20;;;8.10;99.90;;;;;;5022586;28;20025;-82
2024/01/05 03:35:41;;;;;;;0.10;0.10;;;8.10;99.90;;;;;;5018795;28;20065;-81
2024/01/05 03:38:06;;;;;;;0.40;0.40;;;8.00;99.90;;;;;;5020315;28;20037;-82
2024/01/05 03:40:32;;;;;;;0.10;0.10;;;8.00;99.90;;;;;;5021641;28;20053;-80
2024/01/05 03:42:58;;;;;;;0.10;0.10;;;8.00;99.90;;;;;;5015224;28;20036;-80
2024/01/05 03:45:23;;;;;;;0.10;0.10;;;8.00;99.90;;;;;;5020115;28;20048;-79
2024/01/05 03:47:49;;;;;;;0.00;0.00;;;7.90;99.90;;;;;;5021713;28;20505;-81
2024/01/05 03:50:15;;;;;;;0.10;0.10;;;8.00;99.90;;;;;;5020985;28;20782;-79
2024/01/05 03:52:40;;;;;;;0.10;0.10;;;8.10;99.90;;;;;;5022816;28;20112;-79
2024/01/05 03:55:06;;;;;;;0.10;0.10;;;8.10;99.90;;;;;;5018789;28;20057;-80
2024/01/05 03:57:32;;;;;;;0.10;0.10;;;8.10;99.90;;;;;;5022194;28;20022;-80
2024/01/05 03:59:58;;;;;;;0.10;0.10;;;8.10;99.90;;;;;;5021278;28;20023;-78
2024/01/05 04:02:23;;;;;;;0.10;0.10;;;8.10;99.90;;;;;;5022974;28;20032;-78
2024/01/05 04:04:49;;;;;;;0.10;0.10;;;8.20;99.90;;;;;;5022675;28;20548;-80
2024/01/05 04:07:15;;;;;;;0.20;0.20;;;8.10;99.90;;;;;;5022892;28;20029;-79
2024/01/05 04:09:40;;;;;;;0.20;0.20;;;8.10;99.90;;;;;;5021542;28;20033;-78
2024/01/05 04:12:06;;;;;;;0.00;0.00;;;8.00;99.90;;;;;;5021587;28;20189;-79
2024/01/05 04:14:33;;;;;;;0.08;0.08;;;8.00;99.90;;;;;;5020670;28;20144;-81
2024/01/05 04:16:59;;;;;;;0.10;0.10;;;8.00;99.90;;;;;;5011600;28;20519;-79
2024/01/05 04:19:25;;;;;;;0.10;0.10;;;8.00;99.90;;;;;;5020960;28;20037;-78
2024/01/05 04:21:50;;;;;;;0.10;0.10;;;8.10;99.90;;;;;;5020337;28;20128;-79
2024/01/05 04:24:16;;;;;;;0.30;0.30;;;8.10;99.90;;;;;;5022083;28;20031;-80
2024/01/05 04:26:42;;;;;;;0.33;0.33;;;8.10;99.90;;;;;;5019015;28;20033;-82
2024/01/05 04:29:07;;;;;;;0.10;0.10;;;8.10;99.90;;;;;;5021657;28;20046;-81
2024/01/05 04:31:33;;;;;;;0.10;0.10;;;8.10;99.90;;;;;;5021004;28;20033;-79
2024/01/05 04:33:59;;;;;;;0.10;0.10;;;8.10;99.90;;;;;;5022877;28;20463;-79
2024/01/05 04:36:24;;;;;;;0.10;0.10;;;8.20;99.90;;;;;;5022219;28;20400;-79
2024/01/05 04:38:50;;;;;;;0.10;0.10;;;8.20;99.90;;;;;;5023099;28;20100;-80
2024/01/05 04:41:16;;;;;;;0.43;0.43;;;8.30;99.90;;;;;;5019455;28;20049;-82
2024/01/05 04:43:45;;;;;;;0.10;0.10;;;8.50;99.90;;;;;;5019985;28;20033;-83
2024/01/05 04:46:11;;;;;;;0.10;0.10;;;8.50;99.90;;;;;;5021124;28;20030;-81
2024/01/05 04:48:37;;;;;;;0.38;0.38;;;8.50;99.90;;;;;;5022278;28;20040;-81
2024/01/05 04:51:03;;;;;;;0.10;0.10;;;8.40;99.90;;;;;;5025943;28;20550;-81
2024/01/05 04:53:29;;;;;;;0.10;0.10;;;8.40;99.90;;;;;;5020400;28;20424;-85
2024/01/05 04:55:54;;;;;;;0.10;0.10;;;8.50;99.90;;;;;;5016190;28;20036;-83
2024/01/05 04:58:20;;;;;;;0.10;0.10;;;8.50;99.90;;;;;;5020728;28;20029;-80
2024/01/05 05:00:46;;;;;;;0.00;0.00;;;8.50;99.90;;;;;;5012941;28;20080;-80
2024/01/05 05:03:13;;;;;;;0.10;0.10;;;8.40;99.90;;;;;;5025313;28;20056;-83
2024/01/05 05:05:39;;;;;;;0.10;0.10;;;8.50;99.90;;;;;;5026029;28;20222;-84
2024/01/05 05:08:06;;;;;;;0.10;0.10;;;8.50;99.90;;;;;;5024920;28;20522;-84
2024/01/05 05:10:32;;;;;;;0.10;0.10;;;8.40;99.90;;;;;;5023885;28;20148;-80
2024/01/05 05:12:58;;;;;;;0.10;0.10;;;8.40;99.90;;;;;;5023753;28;20407;-80
2024/01/05 05:15:23;;;;;;;0.20;0.20;;;8.40;99.90;;;;;;5025092;28;20045;-79
2024/01/05 05:17:51;;;;;;;0.10;0.10;;;8.30;99.90;;;;;;5027406;28;20036;-79
2024/01/05 05:20:16;;;;;;;0.10;0.10;;;8.10;99.90;;;;;;5027450;28;20029;-81
2024/01/05 05:22:42;;;;;;;0.10;0.10;;;8.00;99.90;;;;;;5024652;28;20036;-80
2024/01/05 05:25:08;;;;;;;0.10;0.10;;;8.00;99.90;;;;;;5024589;28;20029;-80
2024/01/05 05:27:34;;;;;;;0.10;0.10;;;8.00;99.90;;;;;;5024394;28;20033;-80
2024/01/05 05:30:01;;;;;;;1.67;1.55;;;7.90;99.90;;;;;;5023972;28;20489;-80
2024/01/05 05:32:27;;;;;;;0.10;0.10;;;7.80;99.90;;;;;;5023863;28;20024;-81
2024/01/05 05:34:52;;;;;;;0.10;0.10;;;7.90;99.90;;;;;;5023407;28;20029;-79
2024/01/05 05:37:18;;;;;;;0.10;0.10;;;7.90;99.90;;;;;;5018931;28;20585;-79
2024/01/05 05:39:43;;;;;;;0.17;0.17;;;7.90;99.90;;;;;;5024941;28;20485;-78
2024/01/05 05:42:09;;;;;;;0.10;0.10;;;7.90;99.90;;;;;;5023309;28;20057;-80
2024/01/05 05:44:35;;;;;;;0.10;0.10;;;7.80;99.90;;;;;;5019647;28;20034;-78
2024/01/05 05:47:00;;;;;;;0.10;0.10;;;7.80;99.90;;;;;;5019104;28;20049;-80
2024/01/05 05:49:26;;;;;;;0.10;0.10;;;7.70;99.90;;;;;;5021066;28;20065;-79
2024/01/05 05:51:52;;;;;;;0.10;0.10;;;7.60;99.90;;;;;;5027400;28;20030;-81
2024/01/05 05:54:17;;;;;;;0.15;0.15;;;7.70;99.90;;;;;;5020428;28;20162;-78
2024/01/05 05:56:43;;;;;;;0.10;0.10;;;7.70;99.90;;;;;;5020005;28;20036;-81
2024/01/05 05:59:09;;;;;;;0.10;0.10;;;7.80;99.90;;;;;;5022823;28;20449;-78
2024/01/05 06:01:34;;;;;;;0.10;0.10;;;7.90;99.90;;;;;;5023692;28;20409;-78
2024/01/05 06:04:00;;;;;;;0.10;0.10;;;7.90;99.90;;;;;;5017429;28;20409;-77
2024/01/05 06:06:25;;;;;;;0.10;0.10;;;8.00;99.90;;;;;;5022677;28;20072;-78
2024/01/05 06:08:51;;;;;;;0.43;0.43;;;8.10;99.90;;;;;;5019261;28;20467;-79
2024/01/05 06:11:18;;;;;;;0.17;0.17;;;8.10;99.90;;;;;;5017168;28;20106;-79
2024/01/05 06:13:47;;;;;;;;;;;8.00;99.90;;;;;;5018080;28;20533;-78
2024/01/05 06:16:14;;;;;;;0.10;0.10;;;8.00;99.90;;;;;;5020019;28;19913;-79
2024/01/05 06:18:40;;;;;;;0.10;0.10;;;7.90;99.90;;;;;;5022481;28;20026;-79
2024/01/05 06:21:05;;;;;;;0.10;0.10;;;7.80;99.90;;;;;;5017976;28;20035;-78
2024/01/05 06:23:32;;;;;;;0.10;0.10;;;7.90;99.90;;;;;;5022146;28;21321;-79
2024/01/05 06:25:58;;;;;;;0.10;0.10;;;7.90;99.90;;;;;;5023419;28;20026;-79
2024/01/05 06:28:23;;;;;;;0.38;0.38;;;7.80;99.90;;;;;;5023989;28;20041;-86
2024/01/05 06:30:49;;;;;;;0.10;0.10;;;7.80;99.90;;;;;;5023254;28;20021;-81
2024/01/05 06:33:15;;;;;;;0.52;0.40;;;7.70;99.90;;;;;;5017726;28;20034;-82
2024/01/05 06:35:41;;;;;;;0.10;0.10;;;7.70;99.90;;;;;;5023334;28;20479;-80
2024/01/05 06:38:06;;;;;;;0.10;0.10;;;7.70;99.90;;;;;;5027852;28;20554;-83
2024/01/05 06:40:32;;;;;;;3.00;2.10;;;7.70;99.90;;;;;;5025251;28;20056;-85
2024/01/05 06:42:58;;;;;;;0.10;0.10;;;7.80;99.90;;;;;;5023498;28;20401;-83
2024/01/05 06:45:24;;;;;;;0.10;0.10;;;7.80;99.90;;;;;;5022024;28;20033;-84
2024/01/05 06:47:50;;;;;;;0.10;0.10;;;7.80;99.90;;;;;;5022920;28;20040;-86
2024/01/05 06:50:16;;;;;;;0.40;0.40;;;7.90;99.90;;;;;;5022028;28;20029;-85
2024/01/05 06:52:42;;;;;;;0.10;0.10;;;8.00;99.90;;;;;;5030332;28;20087;-86
2024/01/05 06:55:08;;;;;;;0.10;0.10;;;8.10;99.90;;;;;;5017701;28;20079;-84
2024/01/05 06:57:35;;;;;;;0.10;0.10;;;8.20;99.90;;;;;;5021969;28;20401;-83
2024/01/05 07:00:11;;;;;;;0.05;0.05;;;8.20;99.90;;;;;;5022679;28;20136;-84
2024/01/05 07:02:37;;;;;;;0.10;0.10;;;8.20;99.90;;;;;;5022221;28;20033;-86
2024/01/05 07:05:04;;;;;;;0.50;0.50;;;8.30;99.90;;;;;;5023379;28;20033;-84
2024/01/05 07:07:30;;;;;;;1.77;1.08;;;8.10;99.90;;;;;;5019885;28;20112;-84
2024/01/05 07:09:56;;;;;;;0.10;0.10;;;8.10;99.90;;;;;;5023553;28;20036;-83
2024/01/05 07:12:22;;;;;;;0.10;0.10;;;8.10;99.90;;;;;;5023657;28;20461;-83
2024/01/05 07:14:48;;;;;;;0.10;0.10;;;7.90;99.90;;;;;;5022943;28;20112;-83
2024/01/05 07:17:13;;;;;;;0.10;0.10;;;8.00;99.90;;;;;;5019055;28;20033;-83
2024/01/05 07:19:40;;;;;;;0.52;0.47;;;7.80;99.90;;;;;;5018420;28;20034;-84
2024/01/05 07:22:06;;;;;;;;;;;7.60;99.90;;;;;;5024118;28;20032;-85
2024/01/05 07:24:35;;;;;;;0.30;0.30;;;7.50;99.90;;;;;;5022722;28;20382;-83
2024/01/05 07:27:01;;;;;;;0.57;0.57;;;7.50;99.90;;;;;;5014658;28;20061;-84
2024/01/05 07:29:26;;;;;;;0.38;0.38;;;7.70;99.90;;;;;;5022969;28;20251;-84
2024/01/05 07:31:52;;;;;;;0.10;0.10;;;7.60;99.90;;;;;;5023806;28;20037;-84
2024/01/05 07:34:18;;;;;;;0.20;0.20;;;7.40;99.90;;;;;;5023782;28;20056;-84
2024/01/05 07:36:43;;;;;;;0.08;0.08;;;7.40;99.90;;;;;;5023275;28;20036;-83
2024/01/05 07:39:11;;;;;;;0.10;0.10;;;7.30;99.90;;;;;;5026024;28;20079;-84
2024/01/05 07:41:37;;;;;;;0.00;0.00;;;7.30;99.90;;;;;;5022562;28;20110;-84
2024/01/05 07:44:03;;;;;;;0.30;0.30;;;7.30;99.90;;;;;;5022052;28;20556;-83
2024/01/05 07:46:29;;;;;;;0.10;0.10;;;7.10;99.90;;;;;;5020895;28;20045;-84
2024/01/05 07:48:54;;;;;;;0.10;0.10;;;7.20;99.90;;;;;;5023235;28;20029;-84
2024/01/05 07:51:20;;;;;;;0.10;0.10;;;7.00;99.90;;;;;;5027506;28;20029;-84
2024/01/05 07:53:48;;;;;;;0.10;0.10;;;7.00;99.90;;;;;;5023169;28;20394;-83
2024/01/05 07:56:14;;;;;;;0.10;0.10;;;7.00;99.90;;;;;;5020774;28;20037;-84
2024/01/05 07:58:40;;;;;;;0.10;0.10;;;7.10;99.90;;;;;;5023044;28;20033;-84
2024/01/05 08:01:05;;;;;;;0.10;0.10;;;7.20;99.90;;;;;;5022547;28;20754;-84
2024/01/05 08:03:31;;;;;;;0.10;0.10;;;7.30;99.90;;;;;;5023222;28;20523;-84
2024/01/05 08:05:57;;;;;;;0.13;0.13;;;7.30;99.90;;;;;;5021359;28;20559;-84
2024/01/05 08:08:23;;;;;;;0.10;0.10;;;7.40;99.90;;;;;;5022804;28;20052;-84
2024/01/05 08:10:49;;;;;;;0.10;0.10;;;7.40;99.90;;;;;;5027917;28;20116;-85
2024/01/05 08:13:14;;;;;;;0.10;0.10;;;7.30;99.90;;;;;;5022504;28;20113;-84
2024/01/05 08:15:40;;;;;;;0.10;0.10;;;7.40;99.90;;;;;;5021768;28;20044;-85
2024/01/05 08:18:06;;;;;;;0.10;0.10;;;7.40;99.90;;;;;;5022424;28;20415;-84
2024/01/05 08:20:32;;;;;;;0.10;0.10;;;7.40;99.90;;;;;;5022005;28;20500;-84
2024/01/05 08:22:57;;;;;;;0.10;0.10;;;7.40;99.90;;;;;;5022084;28;20040;-84
2024/01/05 08:25:23;;;;;;;0.10;0.10;;;7.40;99.90;;;;;;5015546;28;20411;-84
2024/01/05 08:27:49;;;;;;;0.10;0.10;;;7.50;99.90;;;;;;5017683;28;20107;-84
2024/01/05 08:30:14;;;;;;;0.10;0.10;;;7.40;99.90;;;;;;5020123;28;20095;-84
2024/01/05 08:32:41;;;;;;;0.10;0.10;;;7.50;99.90;;;;;;5022399;28;20099;-84
2024/01/05 08:35:08;;;;;;;0.13;0.13;;;7.50;99.90;;;;;;5021596;28;20029;-84
2024/01/05 08:37:34;;;;;;;0.10;0.10;;;7.40;99.90;;;;;;5024928;28;20108;-84
2024/01/05 08:40:00;;;;;;;0.10;0.10;;;7.50;99.90;;;;;;5026564;28;20025;-84
2024/01/05 08:42:26;;;;;;;0.10;0.10;;;7.60;99.90;;;;;;5025346;28;20552;-84
2024/01/05 08:44:52;;;;;;;0.10;0.10;;;7.70;99.90;;;;;;5018255;28;20041;-84
2024/01/05 08:47:18;;;;;;;0.10;0.10;;;7.70;99.90;;;;;;5021396;28;20127;-84
2024/01/05 08:49:44;;;;;;;0.10;0.10;;;7.80;99.90;;;;;;5025609;28;20064;-84
2024/01/05 08:52:09;;;;;;;0.10;0.10;;;7.70;99.90;;;;;;5020425;28;20088;-84
2024/01/05 08:54:39;;;;;;;0.10;0.10;;;7.70;99.90;;;;;;5022959;28;20030;-84
2024/01/05 08:57:06;;;;;;;0.10;0.10;;;7.80;99.90;;;;;;5022077;28;20362;-83
2024/01/05 08:59:33;;;;;;;0.10;0.10;;;7.70;99.90;;;;;;5026308;28;20025;-83
2024/01/05 09:01:59;;;;;;;0.10;0.10;;;7.60;99.90;;;;;;5025656;28;20067;-84
2024/01/05 09:04:24;;;;;;;0.10;0.10;;;7.80;99.90;;;;;;5025458;28;20485;-83
2024/01/05 09:06:51;;;;;;;0.37;0.37;;;7.80;99.90;;;;;;5024925;28;20464;-84
2024/01/05 09:09:16;;;;;;;0.10;0.10;;;7.80;99.90;;;;;;5024917;28;20041;-83
2024/01/05 09:11:42;;;;;;;0.10;0.10;;;7.90;99.90;;;;;;5020888;28;20029;-83
2024/01/05 09:14:08;;;;;;;0.10;0.10;;;7.90;99.90;;;;;;5024781;28;20511;-84
2024/01/05 09:16:33;;;;;;;0.10;0.10;;;7.80;99.90;;;;;;5025278;28;20030;-84
2024/01/05 09:18:59;;;;;;;0.10;0.10;;;7.80;99.90;;;;;;5025299;28;20053;-84
2024/01/05 09:21:25;;;;;;;0.10;0.10;;;7.80;99.90;;;;;;5024033;28;20026;-84
2024/01/05 09:23:50;;;;;;;0.10;0.10;;;7.80;99.90;;;;;;5008374;28;20469;-83
2024/01/05 09:26:16;;;;;;;0.10;0.10;;;7.80;99.90;;;;;;5019641;28;20402;-84
2024/01/05 09:28:42;;;;;;;0.10;0.10;;;7.80;99.90;;;;;;5025033;28;20118;-83
2024/01/05 09:31:09;;;;;;;0.10;0.10;;;7.90;99.90;;;;;;5014095;28;20034;-84
2024/01/05 09:33:35;;;;;;;;;;;8.00;99.90;;;;;;5008359;28;21034;-84
2024/01/05 09:36:02;;;;;;;0.10;0.10;;;8.20;99.90;;;;;;5010450;28;19910;-84
2024/01/05 09:38:28;;;;;;;0.10;0.10;;;8.10;99.90;;;;;;5027579;28;20029;-84
2024/01/05 09:40:54;;;;;;;0.10;0.10;;;8.10;99.90;;;;;;5024022;28;20396;-84
2024/01/05 09:43:24;;;;;;;0.10;0.10;;;8.10;99.90;;;;;;5024232;28;20564;-84
2024/01/05 09:45:51;;;;;;;0.10;0.10;;;8.10;99.90;;;;;;5021177;28;20029;-84
2024/01/05 09:48:21;;;;;;;0.10;0.10;;;8.10;99.90;;;;;;5011695;28;20025;-84
2024/01/05 09:50:50;;;;;;;3.50;2.83;;;8.20;99.90;;;;;;5014477;28;20033;-84
2024/01/05 09:53:17;;;;;;;0.10;0.10;;;8.20;99.90;;;;;;5026212;28;20030;-84
2024/01/05 09:55:50;;;;;;;;;;;8.20;99.90;;;;;;5025223;28;20104;-84
2024/01/05 09:58:16;;;;;;;0.10;0.10;;;8.10;99.90;;;;;;5024871;28;19931;-84
2024/01/05 10:00:52;;;;;;;0.10;0.10;;;8.20;99.90;;;;;;5022020;28;20026;-84
2024/01/05 10:03:25;;;;;;;0.08;0.08;;;8.10;99.90;;;;;;5025007;28;20568;-84
2024/01/05 10:05:55;;;;;;;0.10;0.10;;;8.10;99.90;;;;;;5025203;28;20029;-84
2024/01/05 10:08:23;;;;;;;0.10;0.10;;;8.00;99.90;;;;;;5020138;28;20511;-84
2024/01/05 10:10:56;;;;;;;0.10;0.10;;;8.10;99.90;;;;;;5024555;28;20025;-84
2024/01/05 10:13:22;;;;;;;0.10;0.10;;;8.10;99.90;;;;;;5024928;28;20036;-84
2024/01/05 10:16:02;;;;;;;0.10;0.10;;;8.10;99.90;;;;;;5020509;28;20037;-84
2024/01/05 10:18:29;;;;;;;0.10;0.10;;;8.20;99.90;;;;;;5023013;28;20036;-84
2024/01/05 10:20:57;;;;;;;0.10;0.10;;;8.20;99.90;;;;;;5024508;28;20108;-84
2024/01/05 10:23:23;;;;;;;0.10;0.10;;;8.00;99.90;;;;;;5021025;28;20034;-84
2024/01/05 10:25:51;;;;;;;0.35;0.35;;;7.70;99.90;;;;;;5016034;28;20531;-84
2024/01/05 10:28:24;;;;;;;0.10;0.10;;;7.40;99.90;;;;;;5012834;28;20136;-84
2024/01/05 10:30:49;;;;;;;0.10;0.10;;;7.10;99.90;;;;;;5013117;28;20097;-84
2024/01/05 10:33:16;;;;;;;0.10;0.10;;;7.10;99.90;;;;;;5020661;28;20090;-84
2024/01/05 10:35:42;;;;;;;0.10;0.10;;;6.80;99.90;;;;;;5013940;28;20809;-84
2024/01/05 10:38:12;;;;;;;0.10;0.10;;;6.90;99.90;;;;;;5024879;28;20033;-84
2024/01/05 10:40:38;;;;;;;0.10;0.10;;;6.90;99.90;;;;;;5023070;28;20575;-84
2024/01/05 10:43:09;;;;;;;0.10;0.10;;;7.00;99.90;;;;;;5023317;28;20034;-84
2024/01/05 10:45:36;;;;;;;0.10;0.10;;;6.90;99.90;;;;;;5011659;28;20068;-83
2024/01/05 10:48:05;;;;;;;0.10;0.10;;;6.90;99.90;;;;;;5023343;28;20830;-84
2024/01/05 10:50:34;;;;;;;0.10;0.10;;;7.00;99.90;;;;;;5023544;28;20123;-84
2024/01/05 10:53:02;;;;;;;0.08;0.08;;;7.00;99.90;;;;;;5020666;28;20041;-84
2024/01/05 10:55:28;;;;;;;0.10;0.10;;;7.10;99.90;;;;;;5022906;28;20099;-84
2024/01/05 10:57:56;;;;;;;0.10;0.10;;;7.30;99.90;;;;;;5022915;28;20680;-84
2024/01/05 11:00:24;;;;;;;0.00;0.00;;;7.30;99.90;;;;;;5022055;28;20790;-84
2024/01/05 11:02:52;;;;;;;0.10;0.10;;;7.40;99.90;;;;;;5022724;28;20399;-84
2024/01/05 11:05:20;;;;;;;0.10;0.10;;;7.40;99.90;;;;;;5013810;28;20087;-84
2024/01/05 11:07:48;;;;;;;0.08;0.08;;;7.50;99.90;;;;;;5022711;28;20037;-84
2024/01/05 11:10:23;;;;;;;0.10;0.10;;;7.80;99.90;;;;;;5022464;28;20017;-84
2024/01/05 11:13:26;;;;;;;0.10;0.10;;;8.10;99.90;;;;;;5023044;28;20026;-84
2024/01/05 11:15:57;;;;;;;0.10;0.10;;;8.30;99.90;;;;;;5018416;28;20029;-84
2024/01/05 11:18:57;;;;;;;0.10;0.10;;;8.30;99.90;;;;;;5023249;28;20437;-84
2024/01/05 11:21:41;;;;;;;0.10;0.10;;;8.20;99.90;;;;;;5023370;28;20496;-84
2024/01/05 11:24:08;;;;;;;0.10;0.10;;;8.20;99.90;;;;;;5023962;28;20057;-84
2024/01/05 11:26:35;;;;;;;0.10;0.10;;;8.20;99.90;;;;;;5022777;28;20072;-84
2024/01/05 11:29:04;;;;;;;0.10;0.10;;;8.10;99.90;;;;;;5055233;28;20045;-83
2024/01/05 11:31:51;;;;;;;0.10;0.10;;;8.10;99.90;;;;;;5022682;28;20029;-82
2024/01/05 11:34:28;;;;;;;0.32;0.32;;;8.40;99.90;;;;;;5023129;28;20091;-82
2024/01/05 11:36:55;;;;;;;0.00;0.00;;;8.50;99.90;;;;;;5017252;28;20029;-82
2024/01/05 11:39:41;;;;;;;0.00;0.00;;;8.40;99.90;;;;;;5021108;28;20036;-83
2024/01/05 11:42:07;;;;;;;0.10;0.10;;;8.50;99.90;;;;;;5014935;28;20064;-85
2024/01/05 11:44:34;;;;;;;0.10;0.10;;;8.70;99.90;;;;;;5018176;28;20030;-84
2024/01/05 11:47:03;;;;;;;0.00;0.00;;;8.50;99.90;;;;;;5013533;28;20272;-85
2024/01/05 11:49:39;;;;;;;0.10;0.10;;;8.50;99.90;;;;;;5019993;28;20057;-83
2024/01/05 11:52:05;;;;;;;0.10;0.10;;;8.40;99.90;;;;;;5026387;28;20033;-82
2024/01/05 11:54:32;;;;;;;0.10;0.10;;;8.50;99.90;;;;;;5022341;28;20029;-83
2024/01/05 11:57:01;;;;;;;0.10;0.10;;;8.30;99.90;;;;;;5015170;28;20029;-86
2024/01/05 11:59:27;;;;;;;0.10;0.10;;;8.30;99.90;;;;;;5020794;28;20071;-83
2024/01/05 12:01:53;;;;;;;0.10;0.10;;;8.40;99.90;;;;;;5025879;28;20709;-85
2024/01/05 12:04:20;;;;;;;0.10;0.10;;;8.30;99.90;;;;;;5020199;28;20477;-83
2024/01/05 12:06:52;;;;;;;0.07;0.07;;;8.00;99.90;;;;;;5021842;28;20588;-87
2024/01/05 12:09:19;;;;;;;0.00;0.00;;;7.90;99.90;;;;;;5020847;28;20025;-87
2024/01/05 12:11:45;;;;;;;;;;;7.90;99.90;;;;;;5017525;28;20029;-87
2024/01/05 12:14:11;;;;;;;0.00;0.00;;;7.90;99.90;;;;;;5045902;28;19909;-85
2024/01/05 12:16:37;;;;;;;0.00;0.00;;;8.00;99.90;;;;;;5020803;28;20043;-87
2024/01/05 12:19:02;;;;;;;0.10;0.10;;;7.90;99.90;;;;;;5013389;28;20038;-86
2024/01/05 12:21:28;;;;;;;0.10;0.10;;;8.00;99.90;;;;;;5018150;28;20033;-86
2024/01/05 12:23:55;;;;;;;0.10;0.10;;;8.00;99.90;;;;;;5022080;28;20041;-87
2024/01/05 12:26:21;;;;;;;0.00;0.00;;;8.10;99.90;;;;;;5021740;28;20057;-87
2024/01/05 12:28:48;;;;;;;0.10;0.10;;;8.10;99.90;;;;;;5022956;28;20953;-87
2024/01/05 12:31:14;;;;;;;;;;;8.20;99.90;;;;;;5021859;28;20025;-86
2024/01/05 12:33:40;;;;;;;0.10;0.10;;;8.40;99.90;;;;;;5021713;28;20287;-86
2024/01/05 12:36:12;;;;;;;0.00;0.00;;;8.30;99.90;;;;;;5011389;28;20025;-86
2024/01/05 12:38:38;;;;;;;0.05;0.05;;;8.20;99.90;;;;;;5014423;28;20140;-87
2024/01/05 12:41:05;;;;;;;0.10;0.10;;;8.20;99.90;;;;;;5019297;28;20536;-87
2024/01/05 12:43:32;;;;;;;0.10;0.10;;;8.30;99.90;;;;;;5022052;28;20060;-85
2024/01/05 12:46:00;;;;;;;0.10;0.10;;;8.40;99.90;;;;;;5008868;28;20512;-86
2024/01/05 12:48:27;;;;;;;0.10;0.10;;;8.60;99.90;;;;;;5021203;28;20033;-86
2024/01/05 12:51:11;;;;;;;0.10;0.10;;;8.70;99.90;;;;;;5023887;28;20029;-86
2024/01/05 12:53:36;;;;;;;0.10;0.10;;;8.70;99.90;;;;;;5021395;28;20488;-86
2024/01/05 12:56:17;;;;;;;0.10;0.10;;;8.70;99.90;;;;;;5018990;28;20112;-87